Shellbrook, Canada
Current Conditions -  °F | °C
As of 5:00 AM on Monday 20 Oct 2014 (Local Time) from CYPA Reporting Station
Few Clouds Few Clouds  
Wind Chill: 31°   Ceiling: Unl
Heat Index: 37°   Visibility: 15mi
Dew Point: 36°   Wind: 9mph
Humidity: 93%   Direction: 90°E
Pressure: 29.8"   Gusts: NA
Location:  53.22°N, 106.4°W
Report Text: CYPA 201100Z 09008KT 15SM FEW250 03/02 A2980 RMK CI2 SLP103
Loading
Personal Weather Stations






























Interactive Weather Map
Tropical Storm Tracking
New forecast layout! Learn more

10-Day Weather Forecast

Advertisements
Track Severe Weather on mobile